createdAt,value
2018-07-30T00:00:58.519Z,1008.65
2018-07-30T00:01:58.527Z,1008.66
2018-07-30T00:02:58.534Z,1008.66
2018-07-30T00:03:58.551Z,1008.66
2018-07-30T00:04:58.567Z,1008.64
2018-07-30T00:05:58.556Z,1008.63
2018-07-30T00:06:58.614Z,1008.66
2018-07-30T00:07:58.591Z,1008.61
2018-07-30T00:08:58.590Z,1008.66
2018-07-30T00:09:58.615Z,1008.66
2018-07-30T00:10:58.623Z,1008.69
2018-07-30T00:11:58.589Z,1008.68
2018-07-30T00:12:58.581Z,1008.74
2018-07-30T00:13:58.586Z,1008.77
2018-07-30T00:14:58.604Z,1008.75
2018-07-30T00:15:58.674Z,1008.78
2018-07-30T00:16:58.623Z,1008.75
2018-07-30T00:17:58.617Z,1008.77
2018-07-30T00:18:58.629Z,1008.77
2018-07-30T00:19:58.625Z,1008.75
2018-07-30T00:20:58.618Z,1008.73
2018-07-30T00:21:58.619Z,1008.73
2018-07-30T00:22:58.656Z,1008.68
2018-07-30T00:23:58.653Z,1008.67
2018-07-30T00:24:58.689Z,1008.68
2018-07-30T00:25:58.661Z,1008.69
2018-07-30T00:26:58.693Z,1008.68
2018-07-30T00:27:58.663Z,1008.69
2018-07-30T00:28:58.700Z,1008.69
2018-07-30T00:29:58.679Z,1008.67
2018-07-30T00:30:58.671Z,1008.66
2018-07-30T00:31:58.673Z,1008.66
2018-07-30T00:32:58.696Z,1008.67
2018-07-30T00:33:58.676Z,1008.64
2018-07-30T00:34:58.709Z,1008.60
2018-07-30T00:35:58.732Z,1008.62
2018-07-30T00:36:58.707Z,1008.63
2018-07-30T00:37:58.747Z,1008.64
2018-07-30T00:38:58.875Z,1008.64
2018-07-30T00:39:58.848Z,1008.62
2018-07-30T00:40:58.749Z,1008.66
2018-07-30T00:41:58.735Z,1008.64
2018-07-30T00:42:58.767Z,1008.62
2018-07-30T00:43:58.756Z,1008.64
2018-07-30T00:44:58.766Z,1008.66
2018-07-30T00:45:58.791Z,1008.62
2018-07-30T00:46:58.769Z,1008.66
2018-07-30T00:47:58.765Z,1008.68
2018-07-30T00:48:58.776Z,1008.67
2018-07-30T00:49:58.783Z,1008.68
2018-07-30T00:50:58.786Z,1008.71
2018-07-30T00:51:58.810Z,1008.69
2018-07-30T00:52:58.804Z,1008.70
2018-07-30T00:53:58.770Z,1008.73
2018-07-30T00:54:58.838Z,1008.69
2018-07-30T00:55:58.824Z,1008.68
2018-07-30T00:56:58.818Z,1008.70
2018-07-30T00:57:58.798Z,1008.68
2018-07-30T00:58:58.820Z,1008.67
2018-07-30T00:59:58.807Z,1008.70
2018-07-30T01:00:58.839Z,1008.72
2018-07-30T01:01:58.849Z,1008.67
2018-07-30T01:02:58.823Z,1008.69
2018-07-30T01:03:58.838Z,1008.68
2018-07-30T01:04:58.846Z,1008.70
2018-07-30T01:05:58.843Z,1008.71
2018-07-30T01:06:58.836Z,1008.72
2018-07-30T01:07:58.839Z,1008.78
2018-07-30T01:08:58.854Z,1008.80
2018-07-30T01:09:58.854Z,1008.84
2018-07-30T01:10:58.854Z,1008.87
2018-07-30T01:11:58.866Z,1008.88
2018-07-30T01:12:58.874Z,1008.84
2018-07-30T01:13:58.884Z,1008.81
2018-07-30T01:14:58.916Z,1008.86
2018-07-30T01:15:58.921Z,1008.89
2018-07-30T01:16:58.898Z,1008.87
2018-07-30T01:17:58.917Z,1008.88
2018-07-30T01:18:58.914Z,1008.85
2018-07-30T01:19:58.909Z,1008.86
2018-07-30T01:20:59.861Z,1008.86
2018-07-30T01:21:58.938Z,1008.90
2018-07-30T01:22:58.937Z,1008.89
2018-07-30T01:23:58.934Z,1008.88
2018-07-30T01:24:58.953Z,1008.86
2018-07-30T01:25:58.946Z,1008.87
2018-07-30T01:26:58.942Z,1008.91
2018-07-30T01:27:58.959Z,1008.88
2018-07-30T01:28:58.949Z,1008.88
2018-07-30T01:29:59.000Z,1008.92
2018-07-30T01:30:58.978Z,1008.88
2018-07-30T01:31:58.959Z,1008.91
2018-07-30T01:32:59.004Z,1008.89
2018-07-30T01:33:59.032Z,1008.93
2018-07-30T01:34:59.007Z,1008.91
2018-07-30T01:35:58.974Z,1008.90
2018-07-30T01:36:59.025Z,1008.94
2018-07-30T01:37:59.003Z,1008.96
2018-07-30T01:38:58.998Z,1008.96
2018-07-30T01:39:59.007Z,1008.97
2018-07-30T01:40:59.001Z,1008.96
2018-07-30T01:41:59.033Z,1008.94
2018-07-30T01:42:59.068Z,1008.94
2018-07-30T01:43:59.867Z,1008.93
2018-07-30T01:44:59.040Z,1008.93
2018-07-30T01:45:59.062Z,1008.93
2018-07-30T01:46:59.038Z,1008.94
2018-07-30T01:47:59.049Z,1008.93
2018-07-30T01:48:59.067Z,1008.92
2018-07-30T01:49:59.043Z,1008.92
2018-07-30T01:50:59.049Z,1008.92
2018-07-30T01:51:59.055Z,1008.95
2018-07-30T01:52:59.079Z,1008.97
2018-07-30T01:53:59.076Z,1008.95
2018-07-30T01:54:59.057Z,1008.95
2018-07-30T01:55:59.134Z,1008.93
2018-07-30T01:56:59.085Z,1008.98
2018-07-30T01:57:59.083Z,1008.97
2018-07-30T01:58:59.087Z,1008.92
2018-07-30T01:59:59.124Z,1009.01
2018-07-30T02:00:59.119Z,1009.02
2018-07-30T02:01:59.122Z,1009.03
2018-07-30T02:02:59.135Z,1009.04
2018-07-30T02:03:59.132Z,1009.05
2018-07-30T02:04:59.141Z,1009.07
2018-07-30T02:05:59.109Z,1009.08
2018-07-30T02:06:59.118Z,1009.01
2018-07-30T02:07:59.142Z,1009.02
2018-07-30T02:08:59.148Z,1009.01
2018-07-30T02:09:59.157Z,1009.04
2018-07-30T02:10:59.141Z,1009.04
2018-07-30T02:11:59.248Z,1009.01
2018-07-30T02:12:59.181Z,1009.02
2018-07-30T02:13:59.179Z,1009.06
2018-07-30T02:14:59.161Z,1009.00
2018-07-30T02:15:59.158Z,1009.04
2018-07-30T02:16:59.168Z,1009.07
2018-07-30T02:17:59.163Z,1009.07
2018-07-30T02:18:59.183Z,1009.08
2018-07-30T02:19:59.224Z,1009.08
2018-07-30T02:20:59.224Z,1009.09
2018-07-30T02:21:59.209Z,1009.08
2018-07-30T02:22:59.195Z,1009.10
2018-07-30T02:23:59.199Z,1009.10
2018-07-30T02:24:59.269Z,1009.09
2018-07-30T02:25:59.219Z,1009.09
2018-07-30T02:26:59.208Z,1009.09
2018-07-30T02:27:59.221Z,1009.10
2018-07-30T02:28:59.220Z,1009.11
2018-07-30T02:29:59.219Z,1009.10
2018-07-30T02:30:59.234Z,1009.12
2018-07-30T02:31:59.247Z,1009.12
2018-07-30T02:32:59.239Z,1009.08
2018-07-30T02:33:59.263Z,1009.10
2018-07-30T02:34:59.356Z,1009.09
2018-07-30T02:35:59.253Z,1009.10
2018-07-30T02:36:59.289Z,1009.09
2018-07-30T02:37:59.271Z,1009.03
2018-07-30T02:38:59.280Z,1009.07
2018-07-30T02:39:59.295Z,1009.03
2018-07-30T02:40:59.410Z,1009.08
2018-07-30T02:41:59.298Z,1009.07
2018-07-30T02:42:59.292Z,1009.04
2018-07-30T02:43:59.312Z,1009.06
2018-07-30T02:44:59.310Z,1009.05
2018-07-30T02:45:59.305Z,1009.13
2018-07-30T02:46:59.319Z,1009.09
2018-07-30T02:47:59.348Z,1009.12
2018-07-30T02:48:59.331Z,1009.12
2018-07-30T02:49:59.336Z,1009.12
2018-07-30T02:50:59.375Z,1009.14
2018-07-30T02:51:59.343Z,1009.17
2018-07-30T02:52:59.902Z,1009.13
2018-07-30T02:53:59.347Z,1009.13
2018-07-30T02:54:59.367Z,1009.17
2018-07-30T02:55:59.364Z,1009.14
2018-07-30T02:56:59.340Z,1009.20
2018-07-30T02:57:59.366Z,1009.18
2018-07-30T02:58:59.402Z,1009.17
2018-07-30T02:59:59.393Z,1009.22
2018-07-30T03:00:59.376Z,1009.19
2018-07-30T03:01:59.387Z,1009.21
2018-07-30T03:02:59.489Z,1009.23
2018-07-30T03:03:59.389Z,1009.21
2018-07-30T03:04:59.404Z,1009.21
2018-07-30T03:05:59.388Z,1009.20
2018-07-30T03:06:59.404Z,1009.21
2018-07-30T03:07:59.417Z,1009.20
2018-07-30T03:08:59.422Z,1009.25
2018-07-30T03:09:59.414Z,1009.26
2018-07-30T03:10:59.425Z,1009.28
2018-07-30T03:11:59.434Z,1009.28
2018-07-30T03:12:59.441Z,1009.30
2018-07-30T03:13:59.434Z,1009.27
2018-07-30T03:14:59.440Z,1009.27
2018-07-30T03:15:59.463Z,1009.26
2018-07-30T03:16:59.438Z,1009.26
2018-07-30T03:17:59.455Z,1009.30
2018-07-30T03:18:59.470Z,1009.28
2018-07-30T03:19:59.463Z,1009.30
2018-07-30T03:20:59.480Z,1009.33
2018-07-30T03:21:59.465Z,1009.32
2018-07-30T03:22:59.453Z,1009.32
2018-07-30T03:23:59.496Z,1009.35
2018-07-30T03:24:59.468Z,1009.31
2018-07-30T03:25:59.626Z,1009.33
2018-07-30T03:26:59.506Z,1009.34
2018-07-30T03:27:59.517Z,1009.30
2018-07-30T03:28:59.479Z,1009.31
2018-07-30T03:29:59.495Z,1009.37
2018-07-30T03:30:59.535Z,1009.37
2018-07-30T03:31:59.495Z,1009.39
2018-07-30T03:32:59.495Z,1009.39
2018-07-30T03:33:59.493Z,1009.39
2018-07-30T03:34:59.521Z,1009.34
2018-07-30T03:35:59.507Z,1009.38
2018-07-30T03:36:59.519Z,1009.37
2018-07-30T03:37:59.519Z,1009.36
2018-07-30T03:39:00.430Z,1009.40
2018-07-30T03:39:59.532Z,1009.40
2018-07-30T03:40:59.541Z,1009.41
2018-07-30T03:41:59.550Z,1009.39
2018-07-30T03:42:59.540Z,1009.39
2018-07-30T03:43:59.544Z,1009.38
2018-07-30T03:44:59.574Z,1009.41
2018-07-30T03:45:59.550Z,1009.35
2018-07-30T03:46:59.582Z,1009.34
2018-07-30T03:47:59.606Z,1009.31
2018-07-30T03:48:59.564Z,1009.33
2018-07-30T03:49:59.573Z,1009.38
2018-07-30T03:50:59.591Z,1009.38
2018-07-30T03:51:59.581Z,1009.43
2018-07-30T03:52:59.590Z,1009.41
2018-07-30T03:53:59.702Z,1009.45
2018-07-30T03:54:59.603Z,1009.49
2018-07-30T03:55:59.596Z,1009.44
2018-07-30T03:56:59.599Z,1009.50
2018-07-30T03:57:59.645Z,1009.51
2018-07-30T03:58:59.603Z,1009.49
2018-07-30T03:59:59.631Z,1009.52
2018-07-30T04:00:59.620Z,1009.49
2018-07-30T04:01:59.643Z,1009.52
2018-07-30T04:02:59.622Z,1009.47
2018-07-30T04:03:59.643Z,1009.51
2018-07-30T04:04:59.651Z,1009.47
2018-07-30T04:05:59.711Z,1009.44
2018-07-30T04:06:59.648Z,1009.44
2018-07-30T04:07:59.656Z,1009.46
2018-07-30T04:08:59.680Z,1009.48
2018-07-30T04:09:59.654Z,1009.51
2018-07-30T04:10:59.696Z,1009.50
2018-07-30T04:11:59.661Z,1009.50
2018-07-30T04:12:59.659Z,1009.46
2018-07-30T04:13:59.672Z,1009.50
2018-07-30T04:14:59.690Z,1009.48
2018-07-30T04:15:59.683Z,1009.50
2018-07-30T04:17:00.445Z,1009.51
2018-07-30T04:17:59.714Z,1009.52
2018-07-30T04:18:59.730Z,1009.49
2018-07-30T04:19:59.734Z,1009.50
2018-07-30T04:20:59.719Z,1009.49
2018-07-30T04:21:59.712Z,1009.51
2018-07-30T04:22:59.728Z,1009.53
2018-07-30T04:23:59.716Z,1009.55
2018-07-30T04:24:59.722Z,1009.61
2018-07-30T04:25:59.812Z,1009.60
2018-07-30T04:26:59.750Z,1009.64
2018-07-30T04:27:59.719Z,1009.61
2018-07-30T04:28:59.738Z,1009.63
2018-07-30T04:29:59.821Z,1009.66
2018-07-30T04:30:59.741Z,1009.64
2018-07-30T04:31:59.747Z,1009.70
2018-07-30T04:32:59.753Z,1009.68
2018-07-30T04:33:59.771Z,1009.67
2018-07-30T04:34:59.747Z,1009.67
2018-07-30T04:35:59.754Z,1009.68
2018-07-30T04:36:59.767Z,1009.66
2018-07-30T04:37:59.768Z,1009.64
2018-07-30T04:38:59.776Z,1009.65
2018-07-30T04:39:59.775Z,1009.65
2018-07-30T04:40:59.809Z,1009.69
2018-07-30T04:41:59.801Z,1009.65
2018-07-30T04:42:59.790Z,1009.71
2018-07-30T04:43:59.799Z,1009.67
2018-07-30T04:44:59.813Z,1009.74
2018-07-30T04:45:59.810Z,1009.72
2018-07-30T04:46:59.815Z,1009.72
2018-07-30T04:47:59.820Z,1009.73
2018-07-30T04:48:59.845Z,1009.76
2018-07-30T04:49:59.852Z,1009.80
2018-07-30T04:50:59.821Z,1009.78
2018-07-30T04:51:59.835Z,1009.81
2018-07-30T04:52:59.865Z,1009.82
2018-07-30T04:53:59.844Z,1009.80
2018-07-30T04:54:59.851Z,1009.81
2018-07-30T04:55:59.831Z,1009.81
2018-07-30T04:56:59.894Z,1009.83
2018-07-30T04:58:00.462Z,1009.81
2018-07-30T04:58:59.969Z,1009.86
2018-07-30T04:59:59.860Z,1009.80
2018-07-30T05:00:59.866Z,1009.83
2018-07-30T05:01:59.861Z,1009.89
2018-07-30T05:02:59.877Z,1009.87
2018-07-30T05:03:59.876Z,1009.89
2018-07-30T05:04:59.899Z,1009.89
2018-07-30T05:05:59.884Z,1009.86
2018-07-30T05:06:59.921Z,1009.88
2018-07-30T05:07:59.900Z,1009.87
2018-07-30T05:08:59.898Z,1009.82
2018-07-30T05:09:59.912Z,1009.89
2018-07-30T05:11:00.461Z,1009.86
2018-07-30T05:11:59.903Z,1009.87
2018-07-30T05:12:59.939Z,1009.92
2018-07-30T05:13:59.955Z,1010.00
2018-07-30T05:14:59.918Z,1010.03
2018-07-30T05:15:59.945Z,1010.04
2018-07-30T05:16:59.947Z,1010.03
2018-07-30T05:17:59.939Z,1010.00
2018-07-30T05:18:59.951Z,1009.99
2018-07-30T05:19:59.945Z,1009.98
2018-07-30T05:20:59.962Z,1009.99
2018-07-30T05:21:59.965Z,1010.00
2018-07-30T05:22:59.958Z,1010.02
2018-07-30T05:23:59.985Z,1010.06
2018-07-30T05:25:00.008Z,1010.08
2018-07-30T05:25:59.968Z,1010.10
2018-07-30T05:26:59.981Z,1010.09
2018-07-30T05:28:00.029Z,1010.06
2018-07-30T05:29:00.010Z,1010.05
2018-07-30T05:29:59.988Z,1010.07
2018-07-30T05:31:00.035Z,1010.05
2018-07-30T05:32:00.042Z,1010.03
2018-07-30T05:33:00.050Z,1010.02
2018-07-30T05:34:00.016Z,1010.00
2018-07-30T05:35:00.034Z,1009.99
2018-07-30T05:36:00.016Z,1010.03
2018-07-30T05:37:00.023Z,1009.99
2018-07-30T05:38:00.056Z,1010.02
2018-07-30T05:39:00.980Z,1010.07
2018-07-30T05:40:00.067Z,1010.06
2018-07-30T05:41:00.074Z,1010.06
2018-07-30T05:42:00.048Z,1010.15
2018-07-30T05:43:00.146Z,1010.17
2018-07-30T05:44:00.061Z,1010.13
2018-07-30T05:45:00.133Z,1010.16
2018-07-30T05:46:00.113Z,1010.22
2018-07-30T05:47:00.133Z,1010.13
2018-07-30T05:48:00.100Z,1010.15
2018-07-30T05:49:00.564Z,1010.20
2018-07-30T05:50:00.169Z,1010.22
2018-07-30T05:51:00.112Z,1010.21
2018-07-30T05:52:00.184Z,1010.24
2018-07-30T05:53:00.116Z,1010.27
2018-07-30T05:54:00.116Z,1010.26
2018-07-30T05:55:00.139Z,1010.29
2018-07-30T05:56:00.148Z,1010.31
2018-07-30T05:57:00.129Z,1010.33
2018-07-30T05:58:00.161Z,1010.36
2018-07-30T05:59:00.184Z,1010.37
2018-07-30T06:00:00.155Z,1010.38
2018-07-30T06:01:00.166Z,1010.37
2018-07-30T06:02:00.193Z,1010.38
2018-07-30T06:03:00.180Z,1010.34
2018-07-30T06:04:00.238Z,1010.29
2018-07-30T06:05:00.224Z,1010.30
2018-07-30T06:06:00.246Z,1010.37
2018-07-30T06:07:00.209Z,1010.35
2018-07-30T06:08:00.267Z,1010.39
2018-07-30T06:09:00.217Z,1010.36
2018-07-30T06:10:00.242Z,1010.50
2018-07-30T06:11:00.257Z,1010.56
2018-07-30T06:12:00.255Z,1010.60
2018-07-30T06:13:00.252Z,1010.67
2018-07-30T06:14:00.263Z,1010.67
2018-07-30T06:15:00.324Z,1010.72
2018-07-30T06:16:00.282Z,1010.80
2018-07-30T06:17:00.370Z,1010.82
2018-07-30T06:18:00.298Z,1010.76
2018-07-30T06:19:00.333Z,1010.70
2018-07-30T06:20:00.400Z,1010.52
2018-07-30T06:21:00.380Z,1010.44
2018-07-30T06:22:00.323Z,1010.41
2018-07-30T06:23:00.343Z,1010.38
2018-07-30T06:24:00.365Z,1010.37
2018-07-30T06:25:00.464Z,1010.42
2018-07-30T06:26:00.359Z,1010.50
2018-07-30T06:27:00.548Z,1010.48
2018-07-30T06:28:00.442Z,1010.43
2018-07-30T06:29:00.498Z,1010.42
2018-07-30T06:30:00.489Z,1010.50
2018-07-30T06:31:00.419Z,1010.59
2018-07-30T06:32:00.474Z,1010.60
2018-07-30T06:33:00.483Z,1010.63
2018-07-30T06:34:00.471Z,1010.61
2018-07-30T06:35:00.463Z,1010.57
2018-07-30T06:36:00.482Z,1010.57
2018-07-30T06:37:00.516Z,1010.56
2018-07-30T06:38:00.494Z,1010.58
2018-07-30T06:39:00.507Z,1010.60
2018-07-30T06:40:00.544Z,1010.61
2018-07-30T06:41:00.520Z,1010.51
2018-07-30T06:42:00.556Z,1010.47
2018-07-30T06:43:01.038Z,1010.52
2018-07-30T06:44:00.548Z,1010.51
2018-07-30T06:45:00.564Z,1010.44
2018-07-30T06:46:00.583Z,1010.34
2018-07-30T06:47:00.664Z,1010.40
2018-07-30T06:48:00.661Z,1010.41
2018-07-30T06:49:00.600Z,1010.45
2018-07-30T06:50:00.614Z,1010.59
2018-07-30T06:51:00.641Z,1010.68
2018-07-30T06:52:00.622Z,1010.79
2018-07-30T06:53:00.710Z,1010.90
2018-07-30T06:54:00.682Z,1010.90
2018-07-30T06:55:00.661Z,1010.89
2018-07-30T06:56:00.796Z,1010.88
2018-07-30T06:57:00.706Z,1010.85
2018-07-30T06:58:00.749Z,1010.91
2018-07-30T06:59:00.711Z,1010.92
2018-07-30T07:00:00.713Z,1010.91
2018-07-30T07:01:00.781Z,1010.95
2018-07-30T07:02:00.809Z,1010.94
2018-07-30T07:03:00.769Z,1010.95
2018-07-30T07:04:01.140Z,1010.95
2018-07-30T07:05:00.941Z,1010.95
2018-07-30T07:06:00.816Z,1010.80
2018-07-30T07:07:01.529Z,1010.72
2018-07-30T07:08:01.889Z,1010.78
2018-07-30T07:09:01.024Z,1010.88
2018-07-30T07:10:01.906Z,1010.88
2018-07-30T07:11:01.703Z,1010.97
2018-07-30T07:12:01.426Z,1010.99
2018-07-30T07:13:01.273Z,1011.05
2018-07-30T07:14:01.136Z,1011.09
2018-07-30T07:15:01.028Z,1011.06
2018-07-30T07:16:01.142Z,1011.11
2018-07-30T07:17:22.904Z,1011.11
2018-07-30T07:18:01.158Z,1011.15
2018-07-30T07:19:01.173Z,1011.19
2018-07-30T07:20:16.822Z,1011.17
2018-07-30T07:21:01.286Z,1011.20
2018-07-30T07:22:01.761Z,1011.19
2018-07-30T07:23:01.275Z,1011.23
2018-07-30T07:24:01.242Z,1011.29
2018-07-30T07:25:01.291Z,1011.31
2018-07-30T07:26:10.853Z,1011.41
2018-07-30T07:27:01.144Z,1011.42
2018-07-30T07:28:01.141Z,1011.45
2018-07-30T07:29:01.323Z,1011.50
2018-07-30T07:30:01.462Z,1011.56
2018-07-30T07:31:01.427Z,1011.65
2018-07-30T07:32:01.443Z,1011.65
2018-07-30T07:33:08.229Z,1011.74
2018-07-30T07:34:01.314Z,1011.80
2018-07-30T07:35:01.481Z,1011.84
2018-07-30T07:36:02.578Z,1011.90
2018-07-30T07:37:16.499Z,1011.95
2018-07-30T07:38:01.301Z,1011.99
2018-07-30T07:39:03.365Z,1012.04
2018-07-30T07:40:01.387Z,1011.99
2018-07-30T07:41:03.219Z,1011.93
2018-07-30T07:42:01.401Z,1011.93
2018-07-30T07:43:01.625Z,1011.95
2018-07-30T07:44:02.166Z,1012.01
2018-07-30T07:45:01.454Z,1012.05
2018-07-30T07:46:01.415Z,1012.10
2018-07-30T07:47:01.452Z,1012.16
2018-07-30T07:48:02.065Z,1012.18
2018-07-30T07:49:01.478Z,1012.28
2018-07-30T07:50:01.559Z,1012.38
2018-07-30T07:51:01.828Z,1012.49
2018-07-30T07:52:01.590Z,1012.72
2018-07-30T07:53:01.522Z,1012.91
2018-07-30T07:54:01.714Z,1013.18
2018-07-30T07:55:01.533Z,1013.42
2018-07-30T07:56:01.618Z,1013.20
2018-07-30T07:57:01.578Z,1013.34
2018-07-30T07:58:01.641Z,1013.89
2018-07-30T07:59:01.624Z,1013.85
2018-07-30T08:00:01.876Z,1013.82
2018-07-30T08:01:01.696Z,1014.36
2018-07-30T08:02:01.720Z,1014.99
2018-07-30T08:03:01.686Z,1014.11
2018-07-30T08:04:01.775Z,1017.51
2018-07-30T08:05:01.785Z,1019.04
2018-07-30T08:06:01.784Z,1020.75
2018-07-30T08:07:01.781Z,1021.08
2018-07-30T08:08:01.860Z,1022.72
2018-07-30T08:09:01.827Z,1022.50
2018-07-30T08:10:01.874Z,1019.86
2018-07-30T08:11:01.922Z,1016.88
2018-07-30T08:12:01.903Z,1016.19
2018-07-30T08:13:01.920Z,1018.20
2018-07-30T08:14:01.984Z,1015.88
2018-07-30T08:15:01.969Z,1019.93
2018-07-30T08:16:01.993Z,1020.51
2018-07-30T08:17:01.984Z,1014.56
2018-07-30T08:18:02.008Z,1014.54
2018-07-30T08:19:02.047Z,1021.07
2018-07-30T08:20:02.068Z,1036.52
2018-07-30T08:21:02.005Z,1037.93
2018-07-30T08:22:02.101Z,1034.23
2018-07-30T08:23:02.292Z,1039.24
2018-07-30T08:24:02.178Z,1019.95
2018-07-30T08:25:02.233Z,1018.68
2018-07-30T08:26:03.083Z,1022.10
2018-07-30T08:27:02.144Z,1023.92
2018-07-30T08:28:02.201Z,1027.59
2018-07-30T08:29:02.185Z,1040.60
2018-07-30T08:30:02.192Z,1039.69
2018-07-30T08:31:03.090Z,1040.50
2018-07-30T08:32:02.241Z,1040.28
2018-07-30T08:33:02.307Z,1040.07
2018-07-30T08:34:02.250Z,1031.74
2018-07-30T08:35:02.247Z,1038.11
2018-07-30T08:36:02.312Z,1034.12
2018-07-30T08:37:02.323Z,1026.16
2018-07-30T08:38:02.338Z,1018.10
2018-07-30T08:39:02.371Z,1016.31
2018-07-30T08:40:02.537Z,1033.86
2018-07-30T08:41:02.405Z,1028.56
2018-07-30T08:42:02.484Z,1015.82
2018-07-30T08:43:02.418Z,1020.82
2018-07-30T08:44:02.494Z,1015.32
2018-07-30T08:45:02.440Z,1015.86
2018-07-30T08:46:02.481Z,1016.56
2018-07-30T08:47:03.303Z,1015.56
2018-07-30T08:48:02.577Z,1015.73
2018-07-30T08:49:02.631Z,1015.36
2018-07-30T08:50:02.538Z,1014.91
2018-07-30T08:51:02.689Z,1015.82
2018-07-30T08:52:02.639Z,1022.92
2018-07-30T08:53:02.558Z,1017.35
2018-07-30T08:54:02.753Z,1019.20
2018-07-30T08:55:02.615Z,1028.42
2018-07-30T08:56:02.620Z,1025.65
2018-07-30T08:57:02.702Z,1021.81
2018-07-30T08:58:02.698Z,1033.55
2018-07-30T08:59:02.669Z,1032.68
2018-07-30T09:00:02.795Z,1034.03
2018-07-30T09:01:02.777Z,1034.22
2018-07-30T09:02:02.732Z,1033.14
2018-07-30T09:03:02.764Z,1018.96
2018-07-30T09:04:02.791Z,1016.25
2018-07-30T09:05:02.794Z,1030.26
2018-07-30T09:06:02.845Z,1025.87
2018-07-30T09:07:02.812Z,1014.33
2018-07-30T09:08:02.839Z,1014.15
2018-07-30T09:09:02.958Z,1022.41
2018-07-30T09:10:02.882Z,1021.03
2018-07-30T09:11:02.899Z,1018.77
2018-07-30T09:12:02.907Z,1014.01
2018-07-30T09:13:03.070Z,1015.77
2018-07-30T09:14:04.146Z,1017.87
2018-07-30T09:15:02.940Z,1017.20
2018-07-30T09:16:03.216Z,1015.79
2018-07-30T09:17:03.226Z,1015.25
2018-07-30T09:18:03.002Z,1013.53
2018-07-30T09:19:03.127Z,1014.33
2018-07-30T09:20:03.071Z,1014.84
2018-07-30T09:21:03.139Z,1013.23
2018-07-30T09:22:03.074Z,1013.57
2018-07-30T09:23:03.166Z,1014.41
2018-07-30T09:24:03.281Z,1013.32
2018-07-30T09:25:03.142Z,1013.90
2018-07-30T09:26:05.755Z,1013.76
2018-07-30T09:27:03.296Z,1013.55
2018-07-30T09:28:03.218Z,1013.36
2018-07-30T09:29:03.231Z,1013.27
2018-07-30T09:30:03.443Z,1013.25
2018-07-30T09:31:03.305Z,1013.14
2018-07-30T09:32:03.335Z,1012.87
2018-07-30T09:33:03.472Z,1012.73
2018-07-30T09:34:03.458Z,1012.47
2018-07-30T09:35:03.435Z,1012.31
2018-07-30T09:36:03.502Z,1012.36
2018-07-30T09:37:03.488Z,1012.37
2018-07-30T09:38:04.275Z,1012.44
2018-07-30T09:39:03.553Z,1012.60
2018-07-30T09:40:03.424Z,1012.75
2018-07-30T09:41:03.493Z,1012.77
2018-07-30T09:42:03.485Z,1012.73
2018-07-30T09:43:03.623Z,1012.55
2018-07-30T09:44:03.540Z,1012.40
2018-07-30T09:45:03.560Z,1012.35
2018-07-30T09:46:03.703Z,1012.31
2018-07-30T09:47:03.636Z,1012.27
2018-07-30T09:48:03.737Z,1012.25
2018-07-30T09:49:03.723Z,1012.20
2018-07-30T09:50:03.897Z,1012.17
2018-07-30T09:51:03.828Z,1012.19
2018-07-30T09:52:03.797Z,1012.18
2018-07-30T09:53:04.028Z,1012.09
2018-07-30T09:54:03.960Z,1012.04
2018-07-30T09:55:03.985Z,1012.03
2018-07-30T09:56:03.824Z,1011.95
2018-07-30T09:57:03.840Z,1011.95
2018-07-30T09:58:04.641Z,1011.97
2018-07-30T09:59:03.885Z,1011.94
2018-07-30T10:00:04.868Z,1011.94
2018-07-30T10:01:03.950Z,1011.89
2018-07-30T10:02:04.089Z,1011.87
2018-07-30T10:03:04.071Z,1011.82
2018-07-30T10:04:03.968Z,1012.04
2018-07-30T10:05:03.991Z,1012.22
2018-07-30T10:06:04.058Z,1012.30
2018-07-30T10:07:04.186Z,1012.26
2018-07-30T10:08:04.731Z,1012.01
2018-07-30T10:09:04.115Z,1011.85
2018-07-30T10:10:04.192Z,1011.80
2018-07-30T10:11:04.152Z,1011.70
2018-07-30T10:12:04.176Z,1011.68
2018-07-30T10:13:04.214Z,1011.54
2018-07-30T10:14:04.218Z,1011.50
2018-07-30T10:15:04.274Z,1011.49
2018-07-30T10:16:04.339Z,1011.49
2018-07-30T10:17:04.366Z,1011.43
2018-07-30T10:18:04.482Z,1011.35
2018-07-30T10:19:06.243Z,1011.37
2018-07-30T10:20:04.449Z,1011.36
2018-07-30T10:21:04.402Z,1011.35
2018-07-30T10:22:04.415Z,1011.32
2018-07-30T10:23:04.522Z,1011.27
2018-07-30T10:24:04.536Z,1011.29
2018-07-30T10:25:04.696Z,1011.31
2018-07-30T10:26:04.636Z,1011.26
2018-07-30T10:27:04.592Z,1011.31
2018-07-30T10:28:05.238Z,1011.23
2018-07-30T10:29:05.086Z,1011.24
2018-07-30T10:30:05.239Z,1011.29
2018-07-30T10:31:04.800Z,1011.22
2018-07-30T10:32:04.873Z,1011.18
2018-07-30T10:33:04.712Z,1011.18
2018-07-30T10:34:07.206Z,1011.22
2018-07-30T10:35:04.754Z,1011.19
2018-07-30T10:36:04.747Z,1011.18
2018-07-30T10:37:04.814Z,1011.18
2018-07-30T10:38:05.747Z,1011.15
2018-07-30T10:39:04.956Z,1011.15
2018-07-30T10:40:04.856Z,1011.10
2018-07-30T10:41:05.030Z,1010.93
2018-07-30T10:42:04.913Z,1010.80
2018-07-30T10:44:38.745Z,1010.81
2018-07-30T10:45:38.396Z,1011.03
2018-07-30T10:46:38.096Z,1011.06
2018-07-30T10:47:38.358Z,1011.10
2018-07-30T10:48:38.117Z,1010.83
2018-07-30T10:49:38.190Z,1011.21
2018-07-30T10:50:38.443Z,1011.27
2018-07-30T10:51:38.198Z,1011.12
2018-07-30T10:52:39.696Z,1010.95
2018-07-30T10:53:38.295Z,1010.85
2018-07-30T10:54:39.007Z,1010.80
2018-07-30T10:55:38.385Z,1010.74
2018-07-30T10:56:38.325Z,1010.75
2018-07-30T10:57:38.514Z,1010.73
2018-07-30T10:58:38.359Z,1010.74
2018-07-30T10:59:38.399Z,1010.74
2018-07-30T11:00:38.483Z,1010.58
2018-07-30T11:01:38.400Z,1010.60
2018-07-30T11:02:39.021Z,1010.63
2018-07-30T11:03:38.477Z,1010.66
2018-07-30T11:04:38.465Z,1010.64
2018-07-30T11:05:38.479Z,1010.67
2018-07-30T11:06:38.495Z,1010.69
2018-07-30T11:07:38.544Z,1010.65
2018-07-30T11:08:38.613Z,1010.69
2018-07-30T11:09:41.294Z,1010.70
2018-07-30T11:10:38.626Z,1010.74
2018-07-30T11:11:38.649Z,1010.75
2018-07-30T11:12:39.522Z,1010.82
2018-07-30T11:13:38.629Z,1010.82
2018-07-30T11:14:38.666Z,1010.70
2018-07-30T11:15:38.699Z,1010.59
2018-07-30T11:16:38.725Z,1010.66
2018-07-30T11:17:38.767Z,1010.63
2018-07-30T11:18:38.731Z,1010.58
2018-07-30T11:19:38.763Z,1010.54
2018-07-30T11:20:38.737Z,1010.50
2018-07-30T11:21:38.765Z,1010.50
2018-07-30T11:22:38.844Z,1010.46
2018-07-30T11:23:38.811Z,1010.45
2018-07-30T11:24:38.794Z,1010.45
2018-07-30T11:25:38.887Z,1010.40
2018-07-30T11:26:38.849Z,1010.32
2018-07-30T11:27:38.843Z,1010.34
2018-07-30T11:28:38.909Z,1010.36
2018-07-30T11:29:38.908Z,1010.37
2018-07-30T11:30:39.049Z,1010.37
2018-07-30T11:31:38.924Z,1010.36
2018-07-30T11:32:39.055Z,1010.30
2018-07-30T11:33:39.012Z,1010.33
2018-07-30T11:34:39.125Z,1010.34
2018-07-30T11:35:38.958Z,1010.32
2018-07-30T11:36:39.671Z,1010.41
2018-07-30T11:37:39.086Z,1010.37
2018-07-30T11:38:39.045Z,1010.38
2018-07-30T11:39:39.074Z,1010.42
2018-07-30T11:40:39.070Z,1010.43
2018-07-30T11:41:39.094Z,1010.42
2018-07-30T11:42:39.043Z,1010.36
2018-07-30T11:43:39.712Z,1010.34
2018-07-30T11:44:39.672Z,1010.28
2018-07-30T11:45:39.263Z,1010.34
2018-07-30T11:46:39.282Z,1010.29
2018-07-30T11:47:39.158Z,1010.30
2018-07-30T11:48:39.206Z,1010.31
2018-07-30T11:49:40.203Z,1010.27
2018-07-30T11:50:39.194Z,1010.31
2018-07-30T11:51:39.287Z,1010.33
2018-07-30T11:52:39.186Z,1010.36
2018-07-30T11:53:40.057Z,1010.30
2018-07-30T11:54:40.062Z,1010.27
2018-07-30T11:55:39.225Z,1010.22
2018-07-30T11:56:39.560Z,1010.24
2018-07-30T11:57:39.284Z,1010.29
2018-07-30T11:59:39.329Z,1010.27
2018-07-30T12:00:39.287Z,1010.22
2018-07-30T12:01:39.384Z,1010.20
2018-07-30T12:02:40.124Z,1010.22
2018-07-30T12:03:40.106Z,1010.25
2018-07-30T12:04:40.148Z,1010.24
2018-07-30T12:05:39.381Z,1010.23
2018-07-30T12:06:39.377Z,1010.26
2018-07-30T12:07:39.377Z,1010.30
2018-07-30T12:08:40.122Z,1010.26